Salem, IL

6:06 AM CDT on September 20, 2014 (GMT -0500)
Flora Municipal | Change Station
CLOSE
Current Station
Airport
Location: Flora,
Elevation: 472 ft
Nearby Weather Stations

Elev 472 ft 38.67 °N, 88.45 °W | Updated 11 minutes ago

Fog
Fog
52 °F
Feels Like 52 °F
N
0
Wind Variable Wind from North

Today
High -- | Low -- °F
--% Chance of Precip.
Yesterday
High -- | Low -- °F
Precip. -- in
6:41 AM 6:55 PM
Waning Crescent, 13% visible
Pressure 30.03 in
Visibility 5.0 miles
Clouds Clear
Dew Point 52 °F
Humidity 99%
Rainfall 0.00 in
Snow Depth Not available.
UV 0 out of 12
Pollen 7.00 out of 12
Air Quality Not available.
Flu Activity Not available.
METAR KFOA 201055Z AUTO 00000KT 5SM BR CLR 11/11 A3003 RMK AO2 T01110109

More Conditions Fewer Conditions

Pressure 30.03 in
Visibility 5.0 miles
Clouds Clear
Dew Point 52 °F
Humidity 99%
Rainfall 0.00 in
Snow Depth Not available.
UV 0 out of 12
Pollen 7.00 out of 12
Air Quality Not available.
Flu Activity Not available.
METAR KFOA 201055Z AUTO 00000KT 5SM BR CLR 11/11 A3003 RMK AO2 T01110109

More Conditions Fewer Conditions

10-Day Weather Forecast

Almanac

Astronomy

Sep. 20, 2014 Rise Set
Actual Time 6:41 AM CDT 6:55 PM CDT
Civil Twilight 6:15 AM CDT 7:22 PM CDT
Nautical Twilight 5:44 AM CDT 7:53 PM CDT
Astronomical Twilight 5:12 AM CDT 8:25 PM CDT
Moon 3:22 AM CDT 4:57 PM CDT
Length of Visible Light 13h 07m
Length of Day
12h 14m
Tomorrow will be 2m 29s shorter.
Waning Crescent, 13% of the Moon is Illuminated
Today
Waning Crescent
Sep 24
New
Oct 1
First Quarter
Oct 8
Full
Oct 15
Last Quarter

Today's Extremes

State Highs State Lows

Community

WunderPhotos

Upload Photos

1,754,829 photos uploaded!

WunderBlogs® & News

Nearby

Snow Depth

Station Depth Elevation
No new snow has been reported.

Earthquake Activity

City Distance Mag. Time & Date
No recent earthquake activity has been reported nearby.
Minimum magnitude displayed is 2.5.

Coastal Water Temperatures

Place Temperature
No Stations Reporting

Nearby Weather Stations